New York, New York
Traffic Map
Current Weather Conditions
New York, New York
Clear
Clear

Feels Like: -2°
Wind Chill: -2° Ceiling: Unl
Heat Index: Visibility: 10mi
Dew Point: -11° Wind: 7mph
Humidity: 41% Direction: 80° (E)
Pressure: 30.32in Gusts: 0mph
Raw Report DataKJRB 291415Z AUTO 08006KT 10SM CLR 01/M11 A3032 RMK AO1
Traffic Incident Summary
Active as of:
Severity:
Category:
InformationThere was an issue retrieving the traffic information for this location. Please try a different location or try again shortly.
Advertisements
Track Severe Weather on mobile